sensor_id;sensor_type;location;lat;lon;timestamp;P1;durP1;ratioP1;P2;durP2;ratioP2
27863;SDS011;15980;51.092;13.916;2023-05-10T00:01:52;6.47;;;2.50;;
27863;SDS011;15980;51.092;13.916;2023-05-10T00:11:53;4.20;;;2.55;;
27863;SDS011;15980;51.092;13.916;2023-05-10T00:21:53;4.72;;;2.00;;
27863;SDS011;15980;51.092;13.916;2023-05-10T00:31:53;4.00;;;2.20;;
27863;SDS011;15980;51.092;13.916;2023-05-10T00:41:53;2.92;;;2.03;;
27863;SDS011;15980;51.092;13.916;2023-05-10T00:51:54;4.25;;;2.30;;
27863;SDS011;15980;51.092;13.916;2023-05-10T01:01:54;4.57;;;2.05;;
27863;SDS011;15980;51.092;13.916;2023-05-10T01:11:55;6.30;;;2.45;;
27863;SDS011;15980;51.092;13.916;2023-05-10T01:22:05;5.53;;;2.17;;
27863;SDS011;15980;51.092;13.916;2023-05-10T01:42:21;3.22;;;2.05;;
27863;SDS011;15980;51.092;13.916;2023-05-10T01:52:36;3.67;;;2.17;;
27863;SDS011;15980;51.092;13.916;2023-05-10T02:02:42;5.47;;;2.00;;
27863;SDS011;15980;51.092;13.916;2023-05-10T02:12:46;5.20;;;2.20;;
27863;SDS011;15980;51.092;13.916;2023-05-10T02:22:49;5.60;;;2.20;;
27863;SDS011;15980;51.092;13.916;2023-05-10T02:32:51;6.65;;;2.42;;
27863;SDS011;15980;51.092;13.916;2023-05-10T02:42:52;5.45;;;2.53;;
27863;SDS011;15980;51.092;13.916;2023-05-10T02:52:59;4.30;;;2.10;;
27863;SDS011;15980;51.092;13.916;2023-05-10T03:03:00;5.65;;;2.08;;
27863;SDS011;15980;51.092;13.916;2023-05-10T03:23:27;6.45;;;2.95;;
27863;SDS011;15980;51.092;13.916;2023-05-10T03:33:34;3.60;;;2.33;;
27863;SDS011;15980;51.092;13.916;2023-05-10T03:43:35;5.35;;;2.38;;
27863;SDS011;15980;51.092;13.916;2023-05-10T03:53:35;4.07;;;2.17;;
27863;SDS011;15980;51.092;13.916;2023-05-10T04:03:35;4.30;;;2.35;;
27863;SDS011;15980;51.092;13.916;2023-05-10T04:13:36;4.32;;;2.10;;
27863;SDS011;15980;51.092;13.916;2023-05-10T04:23:37;3.00;;;2.05;;
27863;SDS011;15980;51.092;13.916;2023-05-10T04:33:37;6.63;;;2.03;;
27863;SDS011;15980;51.092;13.916;2023-05-10T04:43:37;3.85;;;2.13;;
27863;SDS011;15980;51.092;13.916;2023-05-10T04:53:38;4.60;;;1.90;;
27863;SDS011;15980;51.092;13.916;2023-05-10T05:03:38;9.70;;;2.20;;
27863;SDS011;15980;51.092;13.916;2023-05-10T05:13:39;6.00;;;2.20;;
27863;SDS011;15980;51.092;13.916;2023-05-10T05:23:39;4.85;;;2.20;;
27863;SDS011;15980;51.092;13.916;2023-05-10T05:33:39;6.70;;;2.40;;
27863;SDS011;15980;51.092;13.916;2023-05-10T05:43:39;4.65;;;2.20;;
27863;SDS011;15980;51.092;13.916;2023-05-10T05:53:40;6.25;;;2.60;;
27863;SDS011;15980;51.092;13.916;2023-05-10T06:03:40;4.03;;;2.13;;
27863;SDS011;15980;51.092;13.916;2023-05-10T06:13:40;3.95;;;2.40;;
27863;SDS011;15980;51.092;13.916;2023-05-10T06:23:42;8.07;;;2.40;;
27863;SDS011;15980;51.092;13.916;2023-05-10T06:33:42;6.80;;;2.45;;
27863;SDS011;15980;51.092;13.916;2023-05-10T06:43:42;3.72;;;2.38;;
27863;SDS011;15980;51.092;13.916;2023-05-10T06:53:43;4.07;;;2.63;;
27863;SDS011;15980;51.092;13.916;2023-05-10T07:03:43;4.97;;;2.40;;
27863;SDS011;15980;51.092;13.916;2023-05-10T07:13:43;5.55;;;2.17;;
27863;SDS011;15980;51.092;13.916;2023-05-10T07:23:43;2.72;;;2.22;;
27863;SDS011;15980;51.092;13.916;2023-05-10T07:33:44;4.40;;;2.45;;
27863;SDS011;15980;51.092;13.916;2023-05-10T07:43:44;9.05;;;2.35;;
27863;SDS011;15980;51.092;13.916;2023-05-10T07:53:44;7.15;;;2.55;;
27863;SDS011;15980;51.092;13.916;2023-05-10T08:03:45;6.80;;;2.38;;
27863;SDS011;15980;51.092;13.916;2023-05-10T08:13:45;4.53;;;2.65;;
27863;SDS011;15980;51.092;13.916;2023-05-10T08:23:46;5.88;;;2.40;;
27863;SDS011;15980;51.092;13.916;2023-05-10T08:33:46;4.93;;;2.50;;
27863;SDS011;15980;51.092;13.916;2023-05-10T08:43:46;8.23;;;2.65;;
27863;SDS011;15980;51.092;13.916;2023-05-10T08:53:47;4.10;;;2.40;;
27863;SDS011;15980;51.092;13.916;2023-05-10T09:03:48;5.97;;;2.92;;
27863;SDS011;15980;51.092;13.916;2023-05-10T09:13:49;4.35;;;2.70;;
27863;SDS011;15980;51.092;13.916;2023-05-10T09:23:50;7.07;;;2.87;;
27863;SDS011;15980;51.092;13.916;2023-05-10T09:33:51;10.02;;;3.03;;
27863;SDS011;15980;51.092;13.916;2023-05-10T09:43:55;6.10;;;2.80;;
27863;SDS011;15980;51.092;13.916;2023-05-10T09:54:12;4.35;;;2.38;;
27863;SDS011;15980;51.092;13.916;2023-05-10T10:04:14;3.30;;;2.50;;
27863;SDS011;15980;51.092;13.916;2023-05-10T10:14:14;6.10;;;2.92;;
27863;SDS011;15980;51.092;13.916;2023-05-10T10:24:18;4.22;;;2.83;;
27863;SDS011;15980;51.092;13.916;2023-05-10T10:34:24;5.78;;;2.90;;
27863;SDS011;15980;51.092;13.916;2023-05-10T10:54:34;3.97;;;2.80;;
27863;SDS011;15980;51.092;13.916;2023-05-10T11:04:44;6.68;;;2.85;;
27863;SDS011;15980;51.092;13.916;2023-05-10T11:14:49;5.38;;;3.05;;
27863;SDS011;15980;51.092;13.916;2023-05-10T11:24:56;3.22;;;2.90;;
27863;SDS011;15980;51.092;13.916;2023-05-10T11:34:57;6.80;;;3.65;;
27863;SDS011;15980;51.092;13.916;2023-05-10T11:44:57;5.85;;;3.05;;
27863;SDS011;15980;51.092;13.916;2023-05-10T11:54:57;4.15;;;2.83;;
27863;SDS011;15980;51.092;13.916;2023-05-10T12:04:58;3.72;;;2.65;;
27863;SDS011;15980;51.092;13.916;2023-05-10T12:14:58;8.25;;;3.20;;
27863;SDS011;15980;51.092;13.916;2023-05-10T12:24:59;7.90;;;3.00;;
27863;SDS011;15980;51.092;13.916;2023-05-10T12:35:00;5.60;;;3.10;;
27863;SDS011;15980;51.092;13.916;2023-05-10T12:45:00;8.23;;;3.20;;
27863;SDS011;15980;51.092;13.916;2023-05-10T12:55:00;3.67;;;2.70;;
27863;SDS011;15980;51.092;13.916;2023-05-10T13:05:01;7.60;;;2.28;;
27863;SDS011;15980;51.092;13.916;2023-05-10T13:15:01;4.82;;;2.85;;
27863;SDS011;15980;51.092;13.916;2023-05-10T13:25:02;4.50;;;2.27;;
27863;SDS011;15980;51.092;13.916;2023-05-10T13:35:03;2.97;;;2.45;;
27863;SDS011;15980;51.092;13.916;2023-05-10T13:45:04;4.30;;;2.43;;
27863;SDS011;15980;51.092;13.916;2023-05-10T13:55:04;3.10;;;2.40;;
27863;SDS011;15980;51.092;13.916;2023-05-10T14:05:05;3.92;;;2.55;;
27863;SDS011;15980;51.092;13.916;2023-05-10T14:15:06;4.55;;;2.63;;
27863;SDS011;15980;51.092;13.916;2023-05-10T14:25:06;5.30;;;2.75;;
27863;SDS011;15980;51.092;13.916;2023-05-10T14:35:08;7.10;;;3.10;;
27863;SDS011;15980;51.092;13.916;2023-05-10T14:45:09;5.53;;;3.03;;
27863;SDS011;15980;51.092;13.916;2023-05-10T14:55:10;5.50;;;2.67;;
27863;SDS011;15980;51.092;13.916;2023-05-10T15:05:10;10.07;;;6.25;;
27863;SDS011;15980;51.092;13.916;2023-05-10T15:15:10;4.78;;;2.85;;
27863;SDS011;15980;51.092;13.916;2023-05-10T15:25:11;4.22;;;2.78;;
27863;SDS011;15980;51.092;13.916;2023-05-10T15:35:11;6.80;;;3.30;;
27863;SDS011;15980;51.092;13.916;2023-05-10T15:45:11;7.00;;;2.95;;
27863;SDS011;15980;51.092;13.916;2023-05-10T15:55:11;4.60;;;2.58;;
27863;SDS011;15980;51.092;13.916;2023-05-10T16:05:12;12.63;;;3.15;;
27863;SDS011;15980;51.092;13.916;2023-05-10T16:15:12;8.48;;;4.18;;
27863;SDS011;15980;51.092;13.916;2023-05-10T16:25:13;4.90;;;3.05;;
27863;SDS011;15980;51.092;13.916;2023-05-10T16:35:13;4.97;;;2.78;;
27863;SDS011;15980;51.092;13.916;2023-05-10T16:45:13;5.07;;;3.60;;
27863;SDS011;15980;51.092;13.916;2023-05-10T16:55:14;6.05;;;3.20;;
27863;SDS011;15980;51.092;13.916;2023-05-10T17:05:14;4.90;;;3.22;;
27863;SDS011;15980;51.092;13.916;2023-05-10T17:15:14;5.25;;;3.15;;
27863;SDS011;15980;51.092;13.916;2023-05-10T17:25:15;5.53;;;3.15;;
27863;SDS011;15980;51.092;13.916;2023-05-10T17:35:15;7.38;;;3.50;;
27863;SDS011;15980;51.092;13.916;2023-05-10T17:45:15;9.68;;;3.60;;
27863;SDS011;15980;51.092;13.916;2023-05-10T17:55:16;4.95;;;3.20;;
27863;SDS011;15980;51.092;13.916;2023-05-10T18:05:16;3.80;;;2.80;;
27863;SDS011;15980;51.092;13.916;2023-05-10T18:15:17;4.90;;;3.00;;
27863;SDS011;15980;51.092;13.916;2023-05-10T18:25:17;6.05;;;2.70;;
27863;SDS011;15980;51.092;13.916;2023-05-10T18:35:17;9.43;;;3.95;;
27863;SDS011;15980;51.092;13.916;2023-05-10T18:45:18;7.75;;;3.55;;
27863;SDS011;15980;51.092;13.916;2023-05-10T18:55:18;5.45;;;2.75;;
27863;SDS011;15980;51.092;13.916;2023-05-10T19:05:18;5.78;;;3.60;;
27863;SDS011;15980;51.092;13.916;2023-05-10T19:15:18;5.18;;;3.08;;
27863;SDS011;15980;51.092;13.916;2023-05-10T19:25:19;5.72;;;3.88;;
27863;SDS011;15980;51.092;13.916;2023-05-10T19:35:19;8.23;;;3.90;;
27863;SDS011;15980;51.092;13.916;2023-05-10T19:45:22;7.95;;;3.70;;
27863;SDS011;15980;51.092;13.916;2023-05-10T19:55:29;7.78;;;4.43;;
27863;SDS011;15980;51.092;13.916;2023-05-10T20:05:30;11.68;;;5.57;;
27863;SDS011;15980;51.092;13.916;2023-05-10T20:15:31;7.72;;;4.38;;
27863;SDS011;15980;51.092;13.916;2023-05-10T20:25:31;8.10;;;4.13;;
27863;SDS011;15980;51.092;13.916;2023-05-10T20:35:31;6.50;;;4.25;;
27863;SDS011;15980;51.092;13.916;2023-05-10T20:45:32;8.63;;;4.70;;
27863;SDS011;15980;51.092;13.916;2023-05-10T20:55:32;9.23;;;5.03;;
27863;SDS011;15980;51.092;13.916;2023-05-10T21:05:32;7.93;;;4.95;;
27863;SDS011;15980;51.092;13.916;2023-05-10T21:15:33;10.02;;;6.22;;
27863;SDS011;15980;51.092;13.916;2023-05-10T21:25:33;14.27;;;6.90;;
27863;SDS011;15980;51.092;13.916;2023-05-10T21:35:33;11.98;;;7.55;;
27863;SDS011;15980;51.092;13.916;2023-05-10T21:45:33;16.13;;;7.55;;
27863;SDS011;15980;51.092;13.916;2023-05-10T21:55:34;9.55;;;5.32;;
27863;SDS011;15980;51.092;13.916;2023-05-10T22:05:34;9.68;;;4.40;;
27863;SDS011;15980;51.092;13.916;2023-05-10T22:15:34;8.38;;;4.72;;
27863;SDS011;15980;51.092;13.916;2023-05-10T22:25:35;7.70;;;4.50;;
27863;SDS011;15980;51.092;13.916;2023-05-10T22:35:35;9.02;;;5.10;;
27863;SDS011;15980;51.092;13.916;2023-05-10T22:45:35;8.63;;;4.13;;
27863;SDS011;15980;51.092;13.916;2023-05-10T22:55:36;6.68;;;4.18;;
27863;SDS011;15980;51.092;13.916;2023-05-10T23:05:36;27.08;;;10.07;;
27863;SDS011;15980;51.092;13.916;2023-05-10T23:15:36;8.85;;;5.38;;
27863;SDS011;15980;51.092;13.916;2023-05-10T23:25:37;8.30;;;4.78;;
27863;SDS011;15980;51.092;13.916;2023-05-10T23:35:37;6.45;;;4.63;;
27863;SDS011;15980;51.092;13.916;2023-05-10T23:45:37;6.78;;;4.65;;
27863;SDS011;15980;51.092;13.916;2023-05-10T23:55:38;6.05;;;4.47;;
